Accueil
METAR-TAF:

METAR-TAF

Aéroports :

Brescia Ghedi, Italie

latitude: 45-25N, longitude: 010-17E, altitude: 102 m

Observation

Le bulletin a été fait il y a 49 minutes, à 09:55 UTC
Vent 2 kt de nord/nord-ouest
Température 30°C
Humidité 46%
Pression 1017 hPa
Visibilité 10 km ou plus
Quelques nuages à une hauteur de 3600 ft

METAR: LIPL 180955Z 33002KT 9999 FEW036 30/17 Q1017 RMK FEW VIS MIN 9999 WIND THR31 36002KT WIND THR13 34003KT BLU

Heure: 12:44 (10:44 UTC)

Prévision

Le bulletin a été fait il y a 2 heures et 44 minutes, à 08:00 UTC
Prévision valable du 18 à 09 UTC au 18 à 18 UTC
Vent 4 kt de direction variable
Visibilité 10 km ou plus
Quelques nuages à une hauteur de 4000 ft

TAF: LIPL 180800Z 1809/1818 VRB04KT 9999 FEW040

Observations et prévisions météorologiques de plus de 4000 aéroports (messages METAR et TAF).

Les stations disponibles sont représentées par des disques jaunes et rouges sur la carte.

Passer la souris dessus pour voir le nom de la station.

Cliquer dessus pour voir les observations et prévisions météorologiques.

Pour changer de carte: cliquez sur les boutons verts avec une croix noire pour zoomer, sur le bouton vert avec un tiret pour effectuer un zoom arrière, ou sur les flèches vertes pour les cartes adjacentes.


METAR-TAF: